Time;durP1;ratioP1;P1;durP2;ratioP2;P2;SDS_P1;SDS_P2;PMS_P1;PMS_P2;Temp;Humidity;BMP_temperature;BMP_pressure;BME280_temperature;BME280_humidity;BME280_pressure;Samples;Min_cycle;Max_cycle;Signal;HPM_P1;HPM_P2
2022/08/14 00:02:11;;;;;;;;;;;;;;;;;;5141162;27;45708;-78
2022/08/14 00:04:37;;;;;;;;;;;;;;;;;;5139677;27;45756;-78
2022/08/14 00:07:07;;;;;;;;;;;;;;;;;;5132729;27;46672;-78
2022/08/14 00:09:33;;;;;;;;;;;;;;;;;;5147707;27;46884;-77
2022/08/14 00:12:05;;;;;;;;;;;;;;;;;;5151250;27;41953;-78
2022/08/14 00:14:31;;;;;;;;;;;;;;;;;;5147567;27;48177;-78
2022/08/14 00:16:58;;;;;;;;;;;;;;;;;;5149415;27;44956;-78
2022/08/14 00:19:24;;;;;;;;;;;;;;;;;;5133272;27;47803;-78
2022/08/14 00:21:50;;;;;;;;;;;;;;;;;;5140938;27;47938;-78
2022/08/14 00:24:20;;;;;;;;;;;;;;;;;;5141443;27;42613;-78
2022/08/14 00:26:48;;;;;;;;;;;;;;;;;;5131784;27;44728;-78
2022/08/14 00:29:14;;;;;;;;;;;;;;;;;;5132458;27;48083;-78
2022/08/14 00:31:41;;;;;;;;;;;;;;;;;;5140068;27;44724;-78
2022/08/14 00:34:09;;;;;;;;;;;;;;;;;;5150747;27;47020;-75
2022/08/14 00:36:55;;;;;;;;;;;;;;;;;;5152089;27;20368;-77
2022/08/14 00:39:22;;;;;;;;;;;;;;;;;;5144818;27;47481;-77
2022/08/14 00:41:49;;;;;;;;;;;;;;;;;;5135478;27;48542;-77
2022/08/14 00:44:15;;;;;;;;;;;;;;;;;;5144251;27;44769;-76
2022/08/14 00:46:52;;;;;;;;;;;;;;;;;;5138994;27;47959;-77
2022/08/14 00:49:18;;;;;;;;;;;;;;;;;;5129774;27;48513;-77
2022/08/14 00:51:46;;;;;;;;;;;;;;;;;;5129575;27;42726;-77
2022/08/14 00:54:13;;;;;;;;;;;;;;;;;;5150794;27;45341;-77
2022/08/14 00:56:47;;;;;;;;;;;;;;;;;;5130884;27;43769;-77
2022/08/14 00:59:14;;;;;;;;;;;;;;;;;;5129907;27;44327;-77
2022/08/14 01:01:41;;;;;;;;;;;;;;;;;;5150120;27;47956;-77
2022/08/14 01:04:07;;;;;;;;;;;;;;;;;;5149506;27;43425;-77
2022/08/14 01:06:33;;;;;;;;;;;;;;;;;;5130354;27;47372;-77
2022/08/14 01:09:02;;;;;;;;;;;;;;;;;;5132617;27;48372;-77
2022/08/14 01:11:28;;;;;;;;;;;;;;;;;;5144611;27;44935;-77
2022/08/14 01:13:59;;;;;;;;;;;;;;;;;;5138512;27;46788;-77
2022/08/14 01:16:26;;;;;;;;;;;;;;;;;;5130139;27;46594;-77
2022/08/14 01:21:41;;;;;;;;;;;;;;;;;;5130299;27;47016;-77
2022/08/14 01:24:15;;;;;;;;;;;;;;;;;;5144484;27;44785;-76
2022/08/14 01:26:48;;;;;;;;;;;;;;;;;;5129770;27;47782;-76
2022/08/14 01:29:16;;;;;;;;;;;;;;;;;;5150521;27;48065;-77
2022/08/14 01:32:00;;;;;;;;;;;;;;;;;;5144282;27;43116;-77
2022/08/14 01:34:26;;;;;;;;;;;;;;;;;;5136897;27;45369;-77
2022/08/14 01:37:12;;;;;;;;;;;;;;;;;;5139137;27;19935;-77
2022/08/14 01:39:41;;;;;;;;;;;;;;;;;;5151184;27;45174;-76
2022/08/14 01:42:08;;;;;;;;;;;;;;;;;;5133237;27;47371;-76
2022/08/14 01:44:36;;;;;;;;;;;;;;;;;;5129006;27;45030;-76
2022/08/14 01:47:03;;;;;;;;;;;;;;;;;;5146847;27;45775;-77
2022/08/14 01:49:31;;;;;;;;;;;;;;;;;;5128786;27;47358;-77
2022/08/14 01:52:00;;;;;;;;;;;;;;;;;;5140377;27;42263;-77
2022/08/14 01:54:27;;;;;;;;;;;;;;;;;;5133730;27;44945;-77
2022/08/14 01:57:03;;;;;;;;;;;;;;;;;;5132733;27;47771;-77
2022/08/14 01:59:33;;;;;;;;;;;;;;;;;;5148999;27;44699;-77
2022/08/14 02:02:06;;;;;;;;;;;;;;;;;;5146823;27;45610;-77
2022/08/14 02:04:35;;;;;;;;;;;;;;;;;;5142093;27;44006;-77
2022/08/14 02:07:21;;;;;;;;;;;;;;;;;;5144879;27;20661;-77
2022/08/14 02:09:52;;;;;;;;;;;;;;;;;;5150795;27;48278;-77
2022/08/14 02:12:23;;;;;;;;;;;;;;;;;;5148167;27;44240;-77
2022/08/14 02:14:54;;;;;;;;;;;;;;;;;;5142204;27;48129;-77
2022/08/14 02:17:25;;;;;;;;;;;;;;;;;;5143238;27;47465;-77
2022/08/14 02:19:52;;;;;;;;;;;;;;;;;;5151711;27;43870;-77
2022/08/14 02:22:18;;;;;;;;;;;;;;;;;;5162219;27;46318;-77
2022/08/14 02:24:54;;;;;;;;;;;;;;;;;;5150401;27;46837;-77
2022/08/14 02:27:21;;;;;;;;;;;;;;;;;;5142968;27;44852;-76
2022/08/14 02:30:10;;;;;;;;;;;;;;;;;;5147613;27;19938;-77
2022/08/14 02:32:37;;;;;;;;;;;;;;;;;;5128942;27;44861;-77
2022/08/14 02:35:05;;;;;;;;;;;;;;;;;;5128613;27;46440;-77
2022/08/14 02:37:32;;;;;;;;;;;;;;;;;;5134592;27;45767;-77
2022/08/14 02:40:14;;;;;;;;;;;;;;;;;;5137765;27;45179;-77
2022/08/14 02:42:40;;;;;;;;;;;;;;;;;;5144735;27;46158;-77
2022/08/14 02:45:07;;;;;;;;;;;;;;;;;;5146618;27;48393;-77
2022/08/14 02:47:35;;;;;;;;;;;;;;;;;;5153406;27;41772;-77
2022/08/14 02:50:04;;;;;;;;;;;;;;;;;;5136581;27;48210;-77
2022/08/14 02:52:30;;;;;;;;;;;;;;;;;;5148223;27;43755;-77
2022/08/14 02:55:17;;;;;;;;;;;;;;;;;;5131627;27;19928;-77
2022/08/14 02:57:45;;;;;;;;;;;;;;;;;;5152612;27;46596;-77
2022/08/14 03:00:12;;;;;;;;;;;;;;;;;;5145111;27;44917;-77
2022/08/14 03:02:43;;;;;;;;;;;;;;;;;;5136603;27;46460;-77
2022/08/14 03:05:22;;;;;;;;;;;;;;;;;;5136182;27;45914;-77
2022/08/14 03:07:48;;;;;;;;;;;;;;;;;;5137419;27;42695;-77
2022/08/14 03:10:14;;;;;;;;;;;;;;;;;;5150212;27;46446;-77
2022/08/14 03:12:52;;;;;;;;;;;;;;;;;;5128820;27;42852;-78
2022/08/14 03:15:18;;;;;;;;;;;;;;;;;;5135811;27;47331;-77
2022/08/14 03:17:46;;;;;;;;;;;;;;;;;;5144620;27;45603;-77
2022/08/14 03:20:23;;;;;;;;;;;;;;;;;;5135331;27;43858;-77
2022/08/14 03:22:50;;;;;;;;;;;;;;;;;;5136867;27;46361;-77
2022/08/14 03:25:16;;;;;;;;;;;;;;;;;;5131304;27;48495;-77
2022/08/14 03:27:42;;;;;;;;;;;;;;;;;;5129309;27;43692;-77
2022/08/14 03:30:13;;;;;;;;;;;;;;;;;;5148956;27;47353;-77
2022/08/14 03:32:40;;;;;;;;;;;;;;;;;;5156356;27;43536;-77
2022/08/14 03:35:08;;;;;;;;;;;;;;;;;;5132811;27;46142;-77
2022/08/14 03:37:35;;;;;;;;;;;;;;;;;;5138124;27;45282;-78
2022/08/14 03:40:21;;;;;;;;;;;;;;;;;;5144751;27;19935;-77
2022/08/14 03:42:47;;;;;;;;;;;;;;;;;;5136062;27;44515;-77
2022/08/14 03:45:14;;;;;;;;;;;;;;;;;;5143816;27;48702;-77
2022/08/14 03:47:45;;;;;;;;;;;;;;;;;;5143998;27;42244;-77
2022/08/14 03:50:21;;;;;;;;;;;;;;;;;;5147656;27;46443;-78
2022/08/14 03:52:53;;;;;;;;;;;;;;;;;;5138796;27;47604;-77
2022/08/14 03:55:21;;;;;;;;;;;;;;;;;;5145580;27;47921;-77
2022/08/14 03:57:47;;;;;;;;;;;;;;;;;;5127074;27;46191;-77
2022/08/14 04:00:13;;;;;;;;;;;;;;;;;;5130677;27;42359;-77
2022/08/14 04:02:59;;;;;;;;;;;;;;;;;;5146266;27;19928;-77
2022/08/14 04:05:26;;;;;;;;;;;;;;;;;;5131154;27;47111;-77
2022/08/14 04:07:52;;;;;;;;;;;;;;;;;;5149041;27;43653;-78
2022/08/14 04:10:33;;;;;;;;;;;;;;;;;;5143309;27;46849;-77
2022/08/14 04:13:00;;;;;;;;;;;;;;;;;;5135359;27;45453;-77
2022/08/14 04:15:28;;;;;;;;;;;;;;;;;;5133208;27;41861;-77
2022/08/14 04:17:55;;;;;;;;;;;;;;;;;;5141922;27;45639;-77
2022/08/14 04:20:21;;;;;;;;;;;;;;;;;;5139731;27;43948;-78
2022/08/14 04:22:51;;;;;;;;;;;;;;;;;;5148785;27;46706;-77
2022/08/14 04:25:18;;;;;;;;;;;;;;;;;;5139987;27;46353;-77
2022/08/14 04:27:44;;;;;;;;;;;;;;;;;;5149317;27;43675;-77
2022/08/14 04:30:14;;;;;;;;;;;;;;;;;;5135965;27;47526;-77
2022/08/14 04:32:50;;;;;;;;;;;;;;;;;;5129385;27;47290;-78
2022/08/14 04:35:27;;;;;;;;;;;;;;;;;;5130016;27;42496;-77
2022/08/14 04:43:48;;;;;;;;;;;;;;;;;;5141852;27;46203;-78
2022/08/14 04:46:14;;;;;;;;;;;;;;;;;;5144304;27;44286;-78
2022/08/14 04:49:00;;;;;;;;;;;;;;;;;;5134119;27;19928;-78
2022/08/14 04:51:27;;;;;;;;;;;;;;;;;;5149570;27;46437;-78
2022/08/14 04:53:55;;;;;;;;;;;;;;;;;;5140657;27;48287;-78
2022/08/14 04:56:21;;;;;;;;;;;;;;;;;;5141669;27;42663;-78
2022/08/14 04:58:56;;;;;;;;;;;;;;;;;;5153403;27;46210;-78
2022/08/14 05:01:23;;;;;;;;;;;;;;;;;;5151912;27;31585;-78
2022/08/14 05:03:49;;;;;;;;;;;;;;;;;;5154776;27;47833;-78
2022/08/14 05:06:15;;;;;;;;;;;;;;;;;;5140906;27;46649;-78
2022/08/14 05:09:02;;;;;;;;;;;;;;;;;;5141206;27;19935;-78
2022/08/14 05:11:32;;;;;;;;;;;;;;;;;;5151467;27;44655;-78
2022/08/14 05:13:58;;;;;;;;;;;;;;;;;;5130587;27;47312;-78
2022/08/14 05:16:45;;;;;;;;;;;;;;;;;;5142692;27;19934;-78
2022/08/14 05:19:12;;;;;;;;;;;;;;;;;;5157427;27;45730;-78
2022/08/14 05:21:44;;;;;;;;;;;;;;;;;;5135665;27;45447;-78
2022/08/14 05:24:26;;;;;;;;;;;;;;;;;;5139882;27;47310;-78
2022/08/14 05:26:53;;;;;;;;;;;;;;;;;;5131720;27;45591;-78
2022/08/14 05:29:19;;;;;;;;;;;;;;;;;;5151109;27;44793;-78
2022/08/14 05:31:45;;;;;;;;;;;;;;;;;;5132842;27;45941;-78
2022/08/14 05:34:11;;;;;;;;;;;;;;;;;;5146759;27;47949;-78
2022/08/14 05:36:37;;;;;;;;;;;;;;;;;;5156089;27;45068;-78
2022/08/14 05:39:04;;;;;;;;;;;;;;;;;;5132782;27;47067;-78
2022/08/14 05:41:31;;;;;;;;;;;;;;;;;;5136945;27;46740;-78
2022/08/14 05:44:18;;;;;;;;;;;;;;;;;;5137185;27;19927;-78
2022/08/14 05:46:44;;;;;;;;;;;;;;;;;;5137175;27;46430;-78
2022/08/14 05:49:10;;;;;;;;;;;;;;;;;;5150960;27;43629;-78
2022/08/14 05:51:37;;;;;;;;;;;;;;;;;;5143537;27;47347;-78
2022/08/14 05:54:03;;;;;;;;;;;;;;;;;;5151901;27;46877;-78
2022/08/14 05:56:38;;;;;;;;;;;;;;;;;;5132824;27;42932;-78
2022/08/14 05:59:05;;;;;;;;;;;;;;;;;;5141241;27;43845;-78
2022/08/14 06:01:32;;;;;;;;;;;;;;;;;;5157298;27;47282;-78
2022/08/14 06:03:59;;;;;;;;;;;;;;;;;;5132001;27;43473;-78
2022/08/14 06:06:25;;;;;;;;;;;;;;;;;;5150757;27;45720;-78
2022/08/14 06:08:51;;;;;;;;;;;;;;;;;;5134947;27;43837;-78
2022/08/14 06:11:17;;;;;;;;;;;;;;;;;;5144627;27;44867;-78
2022/08/14 06:13:45;;;;;;;;;;;;;;;;;;5141677;27;47917;-78
2022/08/14 06:16:11;;;;;;;;;;;;;;;;;;5132567;27;43277;-78
2022/08/14 06:18:38;;;;;;;;;;;;;;;;;;5150122;27;46409;-78
2022/08/14 06:21:04;;;;;;;;;;;;;;;;;;5129993;27;47679;-78
2022/08/14 06:23:31;;;;;;;;;;;;;;;;;;5157042;27;43499;-78
2022/08/14 06:25:57;;;;;;;;;;;;;;;;;;5147957;27;47440;-78
2022/08/14 06:28:24;;;;;;;;;;;;;;;;;;5152561;27;48092;-78
2022/08/14 06:30:52;;;;;;;;;;;;;;;;;;5131445;27;46580;-78
2022/08/14 06:33:19;;;;;;;;;;;;;;;;;;5148430;27;46954;-78
2022/08/14 06:35:45;;;;;;;;;;;;;;;;;;5140289;27;41453;-78
2022/08/14 06:38:11;;;;;;;;;;;;;;;;;;5150634;27;46397;-78
2022/08/14 06:40:42;;;;;;;;;;;;;;;;;;5153365;27;48685;-78
2022/08/14 06:43:08;;;;;;;;;;;;;;;;;;5147541;27;44047;-79
2022/08/14 06:45:34;;;;;;;;;;;;;;;;;;5151827;27;44344;-79
2022/08/14 06:48:01;;;;;;;;;;;;;;;;;;5139025;27;46407;-79
2022/08/14 06:50:27;;;;;;;;;;;;;;;;;;5155154;27;43465;-79
2022/08/14 06:52:55;;;;;;;;;;;;;;;;;;5149738;27;47239;-79
2022/08/14 06:55:22;;;;;;;;;;;;;;;;;;5149382;27;43727;-76
2022/08/14 06:57:53;;;;;;;;;;;;;;;;;;5136835;27;49694;-78
2022/08/14 07:00:19;;;;;;;;;;;;;;;;;;5149007;27;46969;-78
2022/08/14 07:08:25;;;;;;;;;;;;;;;;;;5138327;27;44685;-78
2022/08/14 07:10:54;;;;;;;;;;;;;;;;;;5141038;27;45310;-79
2022/08/14 07:13:21;;;;;;;;;;;;;;;;;;5153684;27;47258;-80
2022/08/14 07:15:49;;;;;;;;;;;;;;;;;;5143127;27;44655;-79
2022/08/14 07:18:15;;;;;;;;;;;;;;;;;;5132747;27;46206;-79
2022/08/14 07:20:43;;;;;;;;;;;;;;;;;;5141820;27;47026;-79
2022/08/14 07:23:09;;;;;;;;;;;;;;;;;;5137415;27;42861;-78
2022/08/14 07:25:45;;;;;;;;;;;;;;;;;;5149658;27;47624;-78
2022/08/14 07:28:11;;;;;;;;;;;;;;;;;;5148268;27;47025;-79
2022/08/14 07:30:38;;;;;;;;;;;;;;;;;;5139994;27;43382;-79
2022/08/14 07:33:07;;;;;;;;;;;;;;;;;;5139381;27;47484;-79
2022/08/14 07:35:33;;;;;;;;;;;;;;;;;;5139901;27;44730;-79
2022/08/14 07:38:08;;;;;;;;;;;;;;;;;;5143403;27;45471;-79
2022/08/14 07:40:34;;;;;;;;;;;;;;;;;;5134080;27;47247;-77
2022/08/14 07:43:00;;;;;;;;;;;;;;;;;;5142023;27;44072;-79
2022/08/14 07:45:39;;;;;;;;;;;;;;;;;;5137296;27;45210;-79
2022/08/14 07:48:05;;;;;;;;;;;;;;;;;;5133758;27;46259;-79
2022/08/14 07:50:31;;;;;;;;;;;;;;;;;;5135674;27;44636;-79
2022/08/14 07:53:00;;;;;;;;;;;;;;;;;;5137732;27;46681;-79
2022/08/14 07:55:27;;;;;;;;;;;;;;;;;;5146431;27;47183;-79
2022/08/14 07:57:55;;;;;;;;;;;;;;;;;;5140366;27;46333;-79
2022/08/14 08:00:21;;;;;;;;;;;;;;;;;;5152962;27;46339;-79
2022/08/14 08:02:58;;;;;;;;;;;;;;;;;;5137155;27;42778;-80
2022/08/14 08:05:25;;;;;;;;;;;;;;;;;;5147033;27;45614;-80
2022/08/14 08:07:51;;;;;;;;;;;;;;;;;;5144068;27;46898;-80
2022/08/14 08:10:30;;;;;;;;;;;;;;;;;;5142710;27;43704;-80
2022/08/14 08:13:16;;;;;;;;;;;;;;;;;;5145879;27;19936;-80
2022/08/14 08:15:43;;;;;;;;;;;;;;;;;;5158054;27;46797;-80
2022/08/14 08:18:09;;;;;;;;;;;;;;;;;;5137851;27;41529;-81
2022/08/14 08:20:45;;;;;;;;;;;;;;;;;;5141277;27;47216;-80
2022/08/14 08:23:17;;;;;;;;;;;;;;;;;;5139516;27;43750;-80
2022/08/14 08:25:46;;;;;;;;;;;;;;;;;;5145453;27;46083;-80
2022/08/14 08:28:13;;;;;;;;;;;;;;;;;;5144220;27;48578;-80
2022/08/14 08:30:46;;;;;;;;;;;;;;;;;;5135814;27;42227;-81
2022/08/14 08:33:15;;;;;;;;;;;;;;;;;;5141957;27;45589;-80
2022/08/14 08:35:41;;;;;;;;;;;;;;;;;;5138916;27;46427;-80
2022/08/14 08:38:13;;;;;;;;;;;;;;;;;;5133115;27;44148;-80
2022/08/14 08:41:07;;;;;;;;;;;;;;;;;;5140319;27;19915;-80
2022/08/14 08:43:36;;;;;;;;;;;;;;;;;;5142438;27;43783;-80
2022/08/14 08:46:11;;;;;;;;;;;;;;;;;;5139319;27;44948;-80
2022/08/14 08:48:47;;;;;;;;;;;;;;;;;;5138556;27;46941;-80
2022/08/14 08:51:21;;;;;;;;;;;;;;;;;;5134276;27;20397;-80
2022/08/14 08:53:47;;;;;;;;;;;;;;;;;;5135276;27;46318;-81
2022/08/14 08:56:14;;;;;;;;;;;;;;;;;;5150880;27;47489;-80
2022/08/14 08:58:55;;;;;;;;;;;;;;;;;;5152770;27;43781;-80
2022/08/14 09:01:21;;;;;;;;;;;;;;;;;;5134453;27;48934;-81
2022/08/14 09:03:48;;;;;;;;;;;;;;;;;;5141388;27;45261;-80
2022/08/14 09:06:14;;;;;;;;;;;;;;;;;;5137978;27;43160;-80
2022/08/14 09:09:00;;;;;;;;;;;;;;;;;;5132889;27;19971;-80
2022/08/14 09:11:26;;;;;;;;;;;;;;;;;;5137519;27;42966;-80
2022/08/14 09:13:53;;;;;;;;;;;;;;;;;;5139771;27;46352;-81
2022/08/14 09:16:19;;;;;;;;;;;;;;;;;;5131513;27;47939;-80
2022/08/14 09:18:46;;;;;;;;;;;;;;;;;;5135709;27;43536;-80
2022/08/14 09:21:12;;;;;;;;;;;;;;;;;;5142794;27;46364;-81
2022/08/14 09:23:38;;;;;;;;;;;;;;;;;;5147839;27;45208;-81
2022/08/14 09:26:24;;;;;;;;;;;;;;;;;;5136225;27;20030;-79
2022/08/14 09:28:53;;;;;;;;;;;;;;;;;;5134949;27;46377;-81
2022/08/14 09:31:19;;;;;;;;;;;;;;;;;;5132296;27;43089;-79
2022/08/14 09:33:46;;;;;;;;;;;;;;;;;;5129757;27;44868;-79
2022/08/14 09:36:23;;;;;;;;;;;;;;;;;;5137208;27;45452;-79
2022/08/14 09:38:50;;;;;;;;;;;;;;;;;;5136747;27;42286;-78
2022/08/14 09:41:16;;;;;;;;;;;;;;;;;;5141140;27;47507;-79
2022/08/14 09:43:42;;;;;;;;;;;;;;;;;;5139165;27;46610;-80
2022/08/14 09:46:09;;;;;;;;;;;;;;;;;;5132851;27;44700;-81
2022/08/14 09:48:36;;;;;;;;;;;;;;;;;;5141324;27;46676;-80
2022/08/14 09:51:02;;;;;;;;;;;;;;;;;;5131913;27;43689;-80
2022/08/14 09:53:28;;;;;;;;;;;;;;;;;;5139021;27;19916;-81
2022/08/14 09:56:14;;;;;;;;;;;;;;;;;;5132885;27;19931;-80
2022/08/14 09:58:49;;;;;;;;;;;;;;;;;;5138990;27;43754;-80
2022/08/14 10:01:15;;;;;;;;;;;;;;;;;;5145835;27;44369;-80
2022/08/14 10:03:41;;;;;;;;;;;;;;;;;;5153097;27;47378;-81
2022/08/14 10:06:08;;;;;;;;;;;;;;;;;;5154344;27;44317;-80
2022/08/14 10:08:34;;;;;;;;;;;;;;;;;;5151403;27;44914;-81
2022/08/14 10:11:00;;;;;;;;;;;;;;;;;;5137694;27;41840;-82
2022/08/14 10:13:28;;;;;;;;;;;;;;;;;;5138014;27;46391;-81
2022/08/14 10:15:54;;;;;;;;;;;;;;;;;;5137810;27;46955;-82
2022/08/14 10:18:20;;;;;;;;;;;;;;;;;;5146425;27;43673;-80
2022/08/14 10:20:47;;;;;;;;;;;;;;;;;;5143148;27;47405;-83
2022/08/14 10:23:15;;;;;;;;;;;;;;;;;;5153355;27;46299;-81
2022/08/14 10:25:43;;;;;;;;;;;;;;;;;;5143378;27;44769;-81
2022/08/14 10:28:09;;;;;;;;;;;;;;;;;;5141092;27;47558;-82
2022/08/14 10:30:55;;;;;;;;;;;;;;;;;;5135587;27;20309;-82
2022/08/14 10:33:21;;;;;;;;;;;;;;;;;;5133884;27;47542;-82
2022/08/14 10:35:48;;;;;;;;;;;;;;;;;;5142615;27;48042;-82
2022/08/14 10:38:14;;;;;;;;;;;;;;;;;;5142493;27;43985;-82
2022/08/14 10:40:40;;;;;;;;;;;;;;;;;;5144072;27;46480;-81
2022/08/14 10:43:09;;;;;;;;;;;;;;;;;;5138028;27;45904;-82
2022/08/14 10:45:38;;;;;;;;;;;;;;;;;;5142580;27;41749;-81
2022/08/14 10:48:11;;;;;;;;;;;;;;;;;;5140566;27;46505;-82
2022/08/14 10:50:52;;;;;;;;;;;;;;;;;;5147636;27;47935;-81
2022/08/14 10:53:19;;;;;;;;;;;;;;;;;;5153061;27;42335;-82
2022/08/14 10:55:48;;;;;;;;;;;;;;;;;;5144837;27;44972;-82
2022/08/14 10:58:15;;;;;;;;;;;;;;;;;;5136474;27;43994;-82
2022/08/14 11:00:47;;;;;;;;;;;;;;;;;;5136398;27;47057;-82
2022/08/14 11:03:13;;;;;;;;;;;;;;;;;;5153439;27;46944;-82
2022/08/14 11:05:45;;;;;;;;;;;;;;;;;;5137513;27;45085;-82
2022/08/14 11:08:12;;;;;;;;;;;;;;;;;;5140776;27;46831;-82
2022/08/14 11:10:38;;;;;;;;;;;;;;;;;;5138285;27;46914;-82
2022/08/14 11:13:05;;;;;;;;;;;;;;;;;;5152825;27;43571;-82
2022/08/14 11:15:32;;;;;;;;;;;;;;;;;;5139118;27;47438;-82
2022/08/14 11:17:59;;;;;;;;;;;;;;;;;;5158560;27;43918;-82
2022/08/14 11:20:26;;;;;;;;;;;;;;;;;;5148473;27;47612;-81
2022/08/14 11:22:53;;;;;;;;;;;;;;;;;;5145065;27;47926;-82
2022/08/14 11:25:25;;;;;;;;;;;;;;;;;;5136717;27;44499;-82
2022/08/14 11:28:08;;;;;;;;;;;;;;;;;;5136575;27;44204;-80
2022/08/14 11:30:39;;;;;;;;;;;;;;;;;;5144473;27;47902;-82
2022/08/14 11:33:17;;;;;;;;;;;;;;;;;;5139209;27;41803;-81
2022/08/14 11:35:43;;;;;;;;;;;;;;;;;;5152420;27;46391;-81
2022/08/14 11:38:16;;;;;;;;;;;;;;;;;;5137911;27;43674;-82
2022/08/14 11:40:43;;;;;;;;;;;;;;;;;;5146846;27;46468;-80
2022/08/14 11:43:12;;;;;;;;;;;;;;;;;;5140856;27;47186;-78
2022/08/14 11:45:38;;;;;;;;;;;;;;;;;;5138151;27;45797;-79
2022/08/14 11:48:04;;;;;;;;;;;;;;;;;;5137881;27;46784;-79
2022/08/14 11:50:38;;;;;;;;;;;;;;;;;;5137202;27;45149;-79
2022/08/14 11:53:05;;;;;;;;;;;;;;;;;;5150974;27;42120;-79
2022/08/14 11:55:32;;;;;;;;;;;;;;;;;;5145462;27;46583;-80
2022/08/14 11:57:58;;;;;;;;;;;;;;;;;;5143511;27;47010;-81
2022/08/14 12:00:25;;;;;;;;;;;;;;;;;;5141181;27;46405;-81
2022/08/14 12:02:57;;;;;;;;;;;;;;;;;;5136071;27;47129;-80
2022/08/14 12:05:38;;;;;;;;;;;;;;;;;;5153408;27;42518;-80
2022/08/14 12:08:06;;;;;;;;;;;;;;;;;;5135918;27;47169;-80
2022/08/14 12:10:37;;;;;;;;;;;;;;;;;;5145387;27;48290;-80
2022/08/14 12:13:07;;;;;;;;;;;;;;;;;;5146644;27;41950;-81
2022/08/14 12:15:34;;;;;;;;;;;;;;;;;;5144039;27;47659;-81
2022/08/14 12:18:01;;;;;;;;;;;;;;;;;;5135009;27;48523;-82
2022/08/14 12:20:27;;;;;;;;;;;;;;;;;;5158749;27;42825;-81
2022/08/14 12:22:56;;;;;;;;;;;;;;;;;;5142201;27;46724;-81
2022/08/14 12:25:23;;;;;;;;;;;;;;;;;;5139705;27;43645;-80
2022/08/14 12:27:50;;;;;;;;;;;;;;;;;;5136535;27;44838;-81
2022/08/14 12:30:19;;;;;;;;;;;;;;;;;;5139989;27;46673;-81
2022/08/14 12:32:55;;;;;;;;;;;;;;;;;;5135001;27;43646;-81
2022/08/14 12:35:23;;;;;;;;;;;;;;;;;;5140260;27;47647;-81
2022/08/14 12:37:51;;;;;;;;;;;;;;;;;;5157560;27;45257;-81
2022/08/14 12:40:20;;;;;;;;;;;;;;;;;;5155850;27;42320;-81
2022/08/14 12:42:46;;;;;;;;;;;;;;;;;;5149795;27;44500;-80
2022/08/14 12:45:23;;;;;;;;;;;;;;;;;;5141265;27;44829;-81
2022/08/14 12:47:49;;;;;;;;;;;;;;;;;;5138450;27;45681;-81
2022/08/14 12:50:16;;;;;;;;;;;;;;;;;;5139514;27;46408;-81
2022/08/14 12:52:43;;;;;;;;;;;;;;;;;;5152817;27;42467;-80
2022/08/14 12:55:19;;;;;;;;;;;;;;;;;;5147317;27;46484;-81
2022/08/14 12:57:46;;;;;;;;;;;;;;;;;;5137680;27;42882;-81
2022/08/14 13:00:17;;;;;;;;;;;;;;;;;;5149202;27;43527;-80
2022/08/14 13:02:51;;;;;;;;;;;;;;;;;;5153831;27;46294;-80
2022/08/14 13:05:23;;;;;;;;;;;;;;;;;;5140760;27;45348;-81
2022/08/14 13:07:50;;;;;;;;;;;;;;;;;;5137534;27;46447;-80
2022/08/14 13:10:19;;;;;;;;;;;;;;;;;;5138850;27;46802;-80
2022/08/14 13:13:07;;;;;;;;;;;;;;;;;;5141631;27;19927;-81
2022/08/14 13:15:40;;;;;;;;;;;;;;;;;;5134195;27;44709;-81
2022/08/14 13:18:06;;;;;;;;;;;;;;;;;;5134640;27;46124;-81
2022/08/14 13:20:32;;;;;;;;;;;;;;;;;;5136942;27;43192;-80
2022/08/14 13:22:58;;;;;;;;;;;;;;;;;;5139030;27;44763;-80
2022/08/14 13:25:25;;;;;;;;;;;;;;;;;;5142267;27;46931;-80
2022/08/14 13:27:53;;;;;;;;;;;;;;;;;;5155665;27;43655;-80
2022/08/14 13:30:19;;;;;;;;;;;;;;;;;;5140871;27;44958;-81
2022/08/14 13:32:49;;;;;;;;;;;;;;;;;;5150880;27;42001;-81
2022/08/14 13:35:15;;;;;;;;;;;;;;;;;;5135145;27;46381;-81
2022/08/14 13:37:49;;;;;;;;;;;;;;;;;;5135490;27;46549;-80
2022/08/14 13:40:18;;;;;;;;;;;;;;;;;;5137878;27;43948;-81
2022/08/14 13:42:45;;;;;;;;;;;;;;;;;;5138836;27;46607;-80
2022/08/14 13:45:13;;;;;;;;;;;;;;;;;;5154185;27;46637;-80
2022/08/14 13:47:40;;;;;;;;;;;;;;;;;;5142565;27;43790;-80
2022/08/14 13:50:10;;;;;;;;;;;;;;;;;;5142583;27;48438;-80
2022/08/14 13:52:39;;;;;;;;;;;;;;;;;;5137987;27;43676;-80
2022/08/14 13:55:18;;;;;;;;;;;;;;;;;;5147268;27;44931;-81
2022/08/14 13:57:44;;;;;;;;;;;;;;;;;;5148952;27;45198;-81
2022/08/14 14:00:15;;;;;;;;;;;;;;;;;;5134225;27;44054;-81
2022/08/14 14:02:47;;;;;;;;;;;;;;;;;;5139686;27;45865;-81
2022/08/14 14:05:13;;;;;;;;;;;;;;;;;;5145174;27;46922;-80
2022/08/14 14:07:40;;;;;;;;;;;;;;;;;;5138419;27;41708;-80
2022/08/14 14:10:08;;;;;;;;;;;;;;;;;;5148365;27;45182;-82
2022/08/14 14:12:38;;;;;;;;;;;;;;;;;;5144868;27;43828;-80
2022/08/14 14:15:06;;;;;;;;;;;;;;;;;;5138311;27;45630;-81
2022/08/14 14:17:32;;;;;;;;;;;;;;;;;;5135750;27;47000;-80
2022/08/14 14:19:59;;;;;;;;;;;;;;;;;;5138482;27;41895;-80
2022/08/14 14:22:26;;;;;;;;;;;;;;;;;;5153790;27;46088;-80
2022/08/14 14:25:03;;;;;;;;;;;;;;;;;;5139348;27;38307;-81
2022/08/14 14:27:29;;;;;;;;;;;;;;;;;;5145436;27;40961;-80
2022/08/14 14:30:06;;;;;;;;;;;;;;;;;;5140827;27;44800;-80
2022/08/14 14:32:52;;;;;;;;;;;;;;;;;;5153822;27;20313;-81
2022/08/14 14:35:30;;;;;;;;;;;;;;;;;;5149495;27;47702;-80
2022/08/14 14:37:59;;;;;;;;;;;;;;;;;;5140512;27;45420;-80
2022/08/14 14:40:27;;;;;;;;;;;;;;;;;;5139582;27;45202;-80
2022/08/14 14:43:14;;;;;;;;;;;;;;;;;;5141866;27;19920;-80
2022/08/14 14:45:42;;;;;;;;;;;;;;;;;;5133519;27;46594;-80
2022/08/14 14:48:08;;;;;;;;;;;;;;;;;;5145827;27;42480;-80
2022/08/14 14:50:38;;;;;;;;;;;;;;;;;;5134911;27;45363;-80
2022/08/14 14:53:04;;;;;;;;;;;;;;;;;;5153128;27;47128;-80
2022/08/14 14:55:40;;;;;;;;;;;;;;;;;;5135034;27;45893;-80
2022/08/14 14:58:08;;;;;;;;;;;;;;;;;;5132613;27;47076;-80
2022/08/14 15:00:34;;;;;;;;;;;;;;;;;;5140610;27;43619;-80
2022/08/14 15:03:01;;;;;;;;;;;;;;;;;;5144333;27;47327;-81
2022/08/14 15:05:29;;;;;;;;;;;;;;;;;;5137280;27;48090;-80
2022/08/14 15:07:56;;;;;;;;;;;;;;;;;;5141916;27;45505;-80
2022/08/14 15:10:23;;;;;;;;;;;;;;;;;;5139075;27;45804;-80
2022/08/14 15:12:53;;;;;;;;;;;;;;;;;;5149580;27;47948;-80
2022/08/14 15:15:22;;;;;;;;;;;;;;;;;;5140449;27;43907;-80
2022/08/14 15:17:48;;;;;;;;;;;;;;;;;;5137269;27;45573;-80
2022/08/14 15:20:14;;;;;;;;;;;;;;;;;;5135543;27;43529;-81
2022/08/14 15:22:42;;;;;;;;;;;;;;;;;;5148952;27;46359;-81
2022/08/14 15:25:16;;;;;;;;;;;;;;;;;;5134504;27;46539;-80
2022/08/14 15:27:44;;;;;;;;;;;;;;;;;;5148697;27;45014;-81
2022/08/14 15:30:11;;;;;;;;;;;;;;;;;;5141220;27;46310;-78
2022/08/14 15:32:37;;;;;;;;;;;;;;;;;;5141144;27;46786;-81
2022/08/14 15:35:04;;;;;;;;;;;;;;;;;;5151621;27;45115;-80
2022/08/14 15:37:30;;;;;;;;;;;;;;;;;;5151327;27;46388;-81
2022/08/14 15:40:09;;;;;;;;;;;;;;;;;;5138474;27;35064;-80
2022/08/14 15:42:41;;;;;;;;;;;;;;;;;;5135088;27;44921;-80
2022/08/14 15:45:15;;;;;;;;;;;;;;;;;;5154005;27;46711;-80
2022/08/14 15:47:42;;;;;;;;;;;;;;;;;;5150736;27;42348;-80
2022/08/14 15:50:08;;;;;;;;;;;;;;;;;;5135723;27;45375;-80
2022/08/14 15:52:35;;;;;;;;;;;;;;;;;;5138556;27;46961;-81
2022/08/14 15:55:02;;;;;;;;;;;;;;;;;;5149992;27;43345;-81
2022/08/14 15:57:28;;;;;;;;;;;;;;;;;;5145143;27;46293;-80
2022/08/14 16:03:00;;;;;;;;;;;;;;;;;;5140414;27;19924;-80
2022/08/14 16:05:26;;;;;;;;;;;;;;;;;;5145466;27;45984;-80
2022/08/14 16:07:52;;;;;;;;;;;;;;;;;;5156354;27;44988;-80
2022/08/14 16:10:18;;;;;;;;;;;;;;;;;;5141423;27;46343;-80
2022/08/14 16:12:55;;;;;;;;;;;;;;;;;;5153479;27;44370;-80
2022/08/14 16:15:22;;;;;;;;;;;;;;;;;;5144832;27;44980;-80
2022/08/14 16:17:49;;;;;;;;;;;;;;;;;;5149968;27;47330;-80
2022/08/14 16:20:16;;;;;;;;;;;;;;;;;;5139747;27;46995;-80
2022/08/14 16:23:03;;;;;;;;;;;;;;;;;;5140057;27;19928;-79
2022/08/14 16:25:36;;;;;;;;;;;;;;;;;;5137660;27;46495;-79
2022/08/14 16:28:02;;;;;;;;;;;;;;;;;;5150098;27;44800;-79
2022/08/14 16:30:32;;;;;;;;;;;;;;;;;;5134710;27;48183;-79
2022/08/14 16:32:58;;;;;;;;;;;;;;;;;;5137158;27;46170;-80
2022/08/14 16:35:26;;;;;;;;;;;;;;;;;;5133904;27;43866;-78
2022/08/14 16:38:08;;;;;;;;;;;;;;;;;;5138957;27;45122;-81
2022/08/14 16:41:15;;;;;;;;;;;;;;;;;;5131461;27;47034;-78
2022/08/14 16:43:42;;;;;;;;;;;;;;;;;;5132784;27;42815;-77
2022/08/14 16:46:09;;;;;;;;;;;;;;;;;;5145273;27;46184;-78
2022/08/14 16:48:35;;;;;;;;;;;;;;;;;;5136490;27;45429;-78
2022/08/14 16:51:24;;;;;;;;;;;;;;;;;;5135214;27;19928;-78
2022/08/14 16:53:50;;;;;;;;;;;;;;;;;;5132239;27;48820;-77
2022/08/14 16:56:20;;;;;;;;;;;;;;;;;;5132629;27;43970;-78
2022/08/14 16:58:49;;;;;;;;;;;;;;;;;;5130916;27;46635;-78
2022/08/14 17:01:16;;;;;;;;;;;;;;;;;;5130466;27;47153;-78
2022/08/14 17:03:50;;;;;;;;;;;;;;;;;;5137832;27;42285;-77
2022/08/14 17:06:17;;;;;;;;;;;;;;;;;;5131010;27;45561;-78
2022/08/14 17:08:56;;;;;;;;;;;;;;;;;;5134166;27;47994;-77
2022/08/14 17:11:22;;;;;;;;;;;;;;;;;;5140973;27;45491;-77
2022/08/14 17:13:48;;;;;;;;;;;;;;;;;;5129691;27;46565;-77
2022/08/14 17:16:26;;;;;;;;;;;;;;;;;;5140244;27;44147;-77
2022/08/14 17:18:52;;;;;;;;;;;;;;;;;;5129198;27;46814;-77
2022/08/14 17:21:25;;;;;;;;;;;;;;;;;;5136758;27;45674;-77